Airport Name : M R Stefanik

Other Name : Bratislava

ICAO : LZIB

IATA : BTS

FAA :

Latitude : 48.170167

Longitude : 17.212667

Country : Slovakia

Local Date and Time : 7/18/2018 11:59:00 PM

 

TAF (Terminal Aerodrome Forecast)

TAF LZIB 181700Z 1818/1918 33010KT 9999 FEW042 BKN080 TEMPO 1818/1908 7000 -RA SCT025 OVC050 BECMG 1900/1902 34007KT TEMPO 1908/1915 35015G25KT BECMG 1911/1913 SCT040 SCT100

 

METAR (METeorological Aerodrome Report)

LZIB 182130Z 33014KT CAVOK 21/14 Q1012

LZIB 182100Z 34015KT CAVOK 21/14 Q1012

LZIB 182030Z 34014KT 9999 -RA NSC 21/14 Q1012

LZIB 182000Z 34017KT 9999 -RA FEW036 SCT081 BKN100 21/14 Q1012

LZIB 181930Z 34014KT 9999 -RA FEW036 SCT064 BKN078 21/14 Q1012

LZIB 181900Z 34019G29KT 9999 -RA FEW036 22/14 Q1012

LZIB 181844Z 34016G28KT 9999 -RA FEW025 SCT075 BKN100 22/14 Q1011

LZIB 181830Z 33015KT 9999 -RA FEW025 SCT086 BKN097 21/14 Q1012 WS ALL RWY

LZIB 181800Z 32012KT 9999 FEW025 BKN081 BKN100 21/15 Q1012 WS ALL RWY NOSIG